Coppermine, Canada
Current Conditions -  °F | °C
As of 10:00 PM on Wednesday 22 Oct 2014 (Local Time) from CYCO Reporting Station
Light Snow Light Snow  
Wind Chill: -18°   Ceiling: 4000
Heat Index: -8°   Visibility: 10mi
Dew Point: -11°   Wind: 22mph
Humidity: 79%   Direction: 100°E
Pressure: 30.13"   Gusts: 31mph
Location:  67.83°N, 115.08°W
Report Text: CYCO 230400Z 10019G27KT 10SM -SN DRSN OVC040 M08/M11 A3013 RMKSC8 SLP207
Loading
Personal Weather Stations






























Interactive Weather Map
Tropical Storm Tracking
New forecast layout! Learn more

10-Day Weather Forecast

Advertisements
Track Severe Weather on mobile